createdAt,value
2023-03-25T00:01:21.268Z,23.7
2023-03-25T00:03:26.268Z,23.69
2023-03-25T00:05:31.439Z,23.68
2023-03-25T00:07:36.410Z,23.69
2023-03-25T00:09:41.482Z,23.7
2023-03-25T00:11:46.514Z,23.68
2023-03-25T00:13:51.499Z,23.67
2023-03-25T00:15:56.470Z,23.68
2023-03-25T00:18:01.528Z,23.66
2023-03-25T00:20:06.709Z,23.65
2023-03-25T00:22:11.905Z,23.65
2023-03-25T00:24:16.885Z,23.64
2023-03-25T00:26:21.924Z,23.63
2023-03-25T00:28:27.159Z,23.63
2023-03-25T00:30:32.144Z,23.63
2023-03-25T00:32:37.354Z,23.63
2023-03-25T00:34:42.629Z,23.62
2023-03-25T00:36:47.598Z,23.62
2023-03-25T00:38:52.544Z,23.59
2023-03-25T00:40:57.667Z,23.59
2023-03-25T00:43:02.632Z,23.6
2023-03-25T00:45:07.590Z,23.6
2023-03-25T00:47:12.601Z,23.59
2023-03-25T00:49:17.594Z,23.58
2023-03-25T00:51:22.566Z,23.57
2023-03-25T00:53:27.539Z,23.56
2023-03-25T00:55:32.532Z,23.56
2023-03-25T00:57:37.512Z,23.57
2023-03-25T00:59:42.527Z,23.56
2023-03-25T01:01:47.529Z,23.55
2023-03-25T01:03:52.878Z,23.54
2023-03-25T01:05:57.896Z,23.52
2023-03-25T01:08:02.915Z,23.53
2023-03-25T01:10:07.903Z,23.51
2023-03-25T01:12:12.948Z,23.51
2023-03-25T01:14:17.959Z,23.51
2023-03-25T01:16:22.983Z,23.5
2023-03-25T01:18:28.078Z,23.51
2023-03-25T01:20:33.048Z,23.5
2023-03-25T01:22:37.985Z,23.51
2023-03-25T01:24:42.968Z,23.51
2023-03-25T01:26:48.012Z,23.48
2023-03-25T01:28:52.987Z,23.48
2023-03-25T01:30:58.009Z,23.47
2023-03-25T01:33:03.196Z,23.45
2023-03-25T01:35:08.341Z,23.45
2023-03-25T01:37:13.359Z,23.42
2023-03-25T01:39:18.404Z,23.43
2023-03-25T01:41:23.397Z,23.4
2023-03-25T01:43:35.873Z,23.4
2023-03-25T01:45:40.844Z,23.41
2023-03-25T01:47:45.851Z,23.42
2023-03-25T01:49:51.103Z,23.4
2023-03-25T01:51:56.122Z,23.41
2023-03-25T01:54:01.139Z,23.4
2023-03-25T01:56:06.186Z,23.38
2023-03-25T01:58:11.222Z,23.37
2023-03-25T02:00:16.267Z,23.35
2023-03-25T02:02:21.243Z,23.34
2023-03-25T02:04:26.428Z,23.34
2023-03-25T02:06:31.431Z,23.34
2023-03-25T02:08:36.435Z,23.33
2023-03-25T02:10:41.447Z,23.33
2023-03-25T02:12:46.492Z,23.32
2023-03-25T02:14:51.586Z,23.32
2023-03-25T02:16:56.566Z,23.31
2023-03-25T02:19:01.562Z,23.3
2023-03-25T02:21:06.533Z,23.28
2023-03-25T02:23:11.497Z,23.29
2023-03-25T02:25:16.821Z,23.27
2023-03-25T02:27:21.903Z,23.26
2023-03-25T02:29:26.909Z,23.26
2023-03-25T02:31:32.032Z,23.25
2023-03-25T02:33:37.155Z,23.25
2023-03-25T02:35:42.156Z,23.23
2023-03-25T02:37:47.271Z,23.24
2023-03-25T02:39:52.270Z,23.24
2023-03-25T02:41:57.350Z,23.24
2023-03-25T02:44:02.346Z,23.21
2023-03-25T02:46:07.475Z,23.22
2023-03-25T02:48:12.780Z,23.22
2023-03-25T02:50:17.838Z,23.22
2023-03-25T02:52:22.877Z,23.21
2023-03-25T02:54:27.864Z,23.22
2023-03-25T02:56:33.069Z,23.22
2023-03-25T02:58:38.187Z,23.22
2023-03-25T03:00:43.164Z,23.2
2023-03-25T03:02:48.204Z,23.2
2023-03-25T03:04:53.642Z,23.19
2023-03-25T03:06:58.702Z,23.19
2023-03-25T03:09:03.705Z,23.19
2023-03-25T03:11:08.697Z,23.2
2023-03-25T03:13:13.708Z,23.19
2023-03-25T03:15:18.669Z,23.2
2023-03-25T03:17:23.826Z,23.2
2023-03-25T03:19:29.114Z,23.2
2023-03-25T03:21:34.281Z,23.2
2023-03-25T03:23:39.298Z,23.19
2023-03-25T03:25:44.302Z,23.18
2023-03-25T03:27:49.310Z,23.18
2023-03-25T03:31:47.942Z,23.13
2023-03-25T03:34:12.665Z,23.15
2023-03-25T03:36:17.629Z,23.16
2023-03-25T03:38:22.726Z,23.15
2023-03-25T03:40:27.819Z,23.15
2023-03-25T03:42:32.820Z,23.16
2023-03-25T03:44:37.800Z,23.13
2023-03-25T03:46:42.827Z,23.14
2023-03-25T03:48:48.094Z,23.12
2023-03-25T03:50:53.089Z,23.11
2023-03-25T03:52:58.098Z,23.11
2023-03-25T03:55:05.690Z,23.11
2023-03-25T03:57:10.687Z,23.11
2023-03-25T03:59:15.786Z,23.09
2023-03-25T04:01:20.763Z,23.09
2023-03-25T04:03:25.862Z,23.07
2023-03-25T04:05:31.225Z,23.08
2023-03-25T04:07:36.260Z,23.06
2023-03-25T04:09:41.431Z,23.06
2023-03-25T04:11:46.456Z,23.05
2023-03-25T04:13:51.496Z,23.04
2023-03-25T04:15:56.508Z,23.03
2023-03-25T04:18:01.708Z,23.03
2023-03-25T04:20:06.900Z,23.02
2023-03-25T04:22:11.866Z,23.03
2023-03-25T04:24:17.071Z,23.04
2023-03-25T04:26:22.211Z,23.03
2023-03-25T04:28:27.166Z,23.01
2023-03-25T04:30:32.180Z,23
2023-03-25T04:32:37.212Z,23.02
2023-03-25T04:34:42.320Z,23.01
2023-03-25T04:36:47.393Z,22.99
2023-03-25T04:38:52.346Z,22.99
2023-03-25T04:40:57.486Z,22.98
2023-03-25T04:43:02.629Z,22.97
2023-03-25T04:45:07.776Z,22.97
2023-03-25T04:47:12.721Z,22.97
2023-03-25T04:49:17.781Z,22.95
2023-03-25T04:51:22.793Z,22.95
2023-03-25T04:53:27.785Z,22.94
2023-03-25T04:55:32.954Z,22.95
2023-03-25T04:57:37.934Z,22.94
2023-03-25T04:59:42.980Z,22.94
2023-03-25T05:01:48.056Z,22.93
2023-03-25T05:03:53.142Z,22.92
2023-03-25T05:05:58.307Z,22.92
2023-03-25T05:08:03.292Z,22.91
2023-03-25T05:10:08.315Z,22.9
2023-03-25T05:12:13.292Z,22.9
2023-03-25T05:14:18.270Z,22.88
2023-03-25T05:16:23.287Z,22.88
2023-03-25T05:18:28.411Z,22.9
2023-03-25T05:20:33.443Z,22.88
2023-03-25T05:22:38.451Z,22.88
2023-03-25T05:24:43.476Z,22.88
2023-03-25T05:26:48.469Z,22.87
2023-03-25T05:28:53.451Z,22.87
2023-03-25T05:30:58.425Z,22.88
2023-03-25T05:33:03.505Z,22.88
2023-03-25T05:35:08.635Z,22.88
2023-03-25T05:37:13.641Z,22.88
2023-03-25T05:39:18.649Z,22.88
2023-03-25T05:41:23.623Z,22.88
2023-03-25T05:43:28.734Z,22.89
2023-03-25T05:45:33.746Z,22.89
2023-03-25T05:47:38.986Z,22.9
2023-03-25T05:49:44.282Z,22.89
2023-03-25T05:51:49.286Z,22.9
2023-03-25T05:53:54.272Z,22.88
2023-03-25T05:55:59.342Z,22.88
2023-03-25T05:58:04.395Z,22.89
2023-03-25T06:00:09.414Z,22.89
2023-03-25T06:02:14.595Z,22.9
2023-03-25T06:04:19.799Z,22.89
2023-03-25T06:06:24.907Z,22.9
2023-03-25T06:08:29.999Z,22.89
2023-03-25T06:10:35.074Z,22.9
2023-03-25T06:12:40.088Z,22.9
2023-03-25T06:14:45.069Z,22.92
2023-03-25T06:16:50.085Z,22.93
2023-03-25T06:18:55.109Z,22.94
2023-03-25T06:21:00.323Z,22.94
2023-03-25T06:23:05.313Z,22.93
2023-03-25T06:25:10.288Z,22.92
2023-03-25T06:27:15.450Z,22.94
2023-03-25T06:29:20.658Z,22.93
2023-03-25T06:31:25.748Z,22.93
2023-03-25T06:33:42.698Z,22.95
2023-03-25T06:35:49.335Z,22.95
2023-03-25T06:37:55.109Z,22.95
2023-03-25T06:40:00.138Z,22.95
2023-03-25T06:42:05.165Z,22.95
2023-03-25T06:44:10.220Z,22.96
2023-03-25T06:46:15.244Z,22.96
2023-03-25T06:48:20.366Z,22.95
2023-03-25T06:50:25.431Z,22.96
2023-03-25T06:52:30.403Z,22.96
2023-03-25T06:54:35.413Z,22.99
2023-03-25T06:56:40.584Z,22.99
2023-03-25T06:58:45.850Z,23
2023-03-25T07:00:50.876Z,23.01
2023-03-25T07:02:55.907Z,23.03
2023-03-25T07:05:01.159Z,23.01
2023-03-25T07:07:06.515Z,23.02
2023-03-25T07:09:11.477Z,23.02
2023-03-25T07:11:16.481Z,23.03
2023-03-25T07:13:21.582Z,23.04
2023-03-25T07:15:26.584Z,23.03
2023-03-25T07:17:31.601Z,23.04
2023-03-25T07:19:36.883Z,23.05
2023-03-25T07:21:41.935Z,23.03
2023-03-25T07:23:46.936Z,23.02
2023-03-25T07:25:52.060Z,23.03
2023-03-25T07:27:57.419Z,23.01
2023-03-25T07:30:02.420Z,23
2023-03-25T07:32:07.523Z,23.01
2023-03-25T07:34:12.548Z,23.01
2023-03-25T07:36:17.556Z,23.01
2023-03-25T07:38:22.596Z,23.03
2023-03-25T07:40:27.678Z,23.09
2023-03-25T07:42:32.835Z,23.19
2023-03-25T07:44:37.819Z,23.3
2023-03-25T07:46:42.818Z,23.43
2023-03-25T07:48:47.804Z,23.52
2023-03-25T07:50:52.821Z,23.61
2023-03-25T07:52:57.910Z,23.68
2023-03-25T07:55:02.955Z,23.73
2023-03-25T07:57:08.141Z,23.76
2023-03-25T07:59:13.413Z,23.78
2023-03-25T08:01:18.410Z,23.81
2023-03-25T08:03:23.411Z,23.83
2023-03-25T08:05:28.728Z,23.84
2023-03-25T08:07:33.731Z,23.86
2023-03-25T08:09:38.726Z,23.87
2023-03-25T08:11:43.802Z,23.89
2023-03-25T08:13:48.812Z,23.94
2023-03-25T08:15:53.889Z,23.96
2023-03-25T08:17:59.069Z,23.98
2023-03-25T08:20:04.240Z,24.02
2023-03-25T08:22:09.253Z,24.03
2023-03-25T08:24:14.232Z,24.04
2023-03-25T08:26:19.297Z,24.05
2023-03-25T08:28:24.331Z,24.05
2023-03-25T08:30:29.833Z,24.07
2023-03-25T08:32:34.812Z,24.1
2023-03-25T08:34:40.249Z,24.1
2023-03-25T08:36:45.328Z,24.13
2023-03-25T08:38:50.330Z,24.14
2023-03-25T08:40:55.387Z,24.12
2023-03-25T08:43:00.453Z,24.09
2023-03-25T08:45:05.483Z,24.06
2023-03-25T08:47:10.461Z,24.06
2023-03-25T08:49:15.471Z,24.07
2023-03-25T08:51:20.557Z,24.09
2023-03-25T08:53:25.654Z,24.09
2023-03-25T08:55:30.592Z,24.09
2023-03-25T08:57:35.584Z,24.09
2023-03-25T08:59:40.574Z,24.08
2023-03-25T09:01:45.504Z,24.07
2023-03-25T09:03:50.756Z,24.07
2023-03-25T09:05:55.663Z,24.08
2023-03-25T09:08:00.655Z,24.07
2023-03-25T09:10:05.667Z,24.05
2023-03-25T09:12:10.699Z,24.04
2023-03-25T09:14:15.682Z,24
2023-03-25T09:16:20.832Z,23.97
2023-03-25T09:18:26.018Z,23.95
2023-03-25T09:20:31.048Z,23.94
2023-03-25T09:22:36.055Z,23.93
2023-03-25T09:24:41.164Z,23.95
2023-03-25T09:26:46.152Z,23.94
2023-03-25T09:28:51.151Z,23.95
2023-03-25T09:30:56.274Z,23.96
2023-03-25T09:33:01.563Z,23.93
2023-03-25T09:35:06.854Z,23.94
2023-03-25T09:37:11.832Z,23.95
2023-03-25T09:39:16.851Z,23.98
2023-03-25T09:41:21.827Z,24.02
2023-03-25T09:43:26.796Z,24.06
2023-03-25T09:45:31.817Z,24.1
2023-03-25T09:47:36.828Z,24.11
2023-03-25T09:49:42.067Z,24.14
2023-03-25T09:51:47.046Z,24.17
2023-03-25T09:53:52.155Z,24.18
2023-03-25T09:55:57.210Z,24.2
2023-03-25T09:58:02.202Z,24.2
2023-03-25T10:00:07.219Z,24.22
2023-03-25T10:02:12.264Z,24.23
2023-03-25T10:04:17.429Z,24.24
2023-03-25T10:06:22.423Z,24.24
2023-03-25T10:08:27.493Z,24.26
2023-03-25T10:10:32.716Z,24.27
2023-03-25T10:12:37.934Z,24.28
2023-03-25T10:14:42.944Z,24.28
2023-03-25T10:16:48.023Z,24.31
2023-03-25T10:18:52.998Z,24.31
2023-03-25T10:20:58.054Z,24.32
2023-03-25T10:23:03.114Z,24.32
2023-03-25T10:25:08.143Z,24.33
2023-03-25T10:27:13.306Z,24.35
2023-03-25T10:29:18.284Z,24.36
2023-03-25T10:31:23.436Z,24.37
2023-03-25T10:33:28.544Z,24.39
2023-03-25T10:35:33.673Z,24.4
2023-03-25T10:37:38.904Z,24.42
2023-03-25T10:39:43.942Z,24.43
2023-03-25T10:41:49.016Z,24.44
2023-03-25T10:43:54.049Z,24.45
2023-03-25T10:45:59.073Z,24.45
2023-03-25T10:48:04.272Z,24.47
2023-03-25T10:50:09.753Z,24.48
2023-03-25T10:52:14.808Z,24.49
2023-03-25T10:54:19.849Z,24.51
2023-03-25T10:56:24.807Z,24.53
2023-03-25T10:58:29.814Z,24.52
2023-03-25T11:00:34.809Z,24.52
2023-03-25T11:02:39.943Z,24.53
2023-03-25T11:04:45.311Z,24.54
2023-03-25T11:06:50.379Z,24.53
2023-03-25T11:08:55.422Z,24.54
2023-03-25T11:11:00.449Z,24.55
2023-03-25T11:13:08.384Z,24.57
2023-03-25T11:15:13.401Z,24.58
2023-03-25T11:17:18.496Z,24.6
2023-03-25T11:19:23.542Z,24.58
2023-03-25T11:21:28.631Z,24.58
2023-03-25T11:23:33.623Z,24.58
2023-03-25T11:25:38.733Z,24.59
2023-03-25T11:27:43.744Z,24.6
2023-03-25T11:29:48.754Z,24.61
2023-03-25T11:31:53.732Z,24.6
2023-03-25T11:33:58.773Z,24.61
2023-03-25T11:36:03.842Z,24.63
2023-03-25T11:38:08.985Z,24.63
2023-03-25T11:40:14.049Z,24.67
2023-03-25T11:42:19.338Z,24.71
2023-03-25T11:44:24.433Z,24.74
2023-03-25T11:46:29.485Z,24.79
2023-03-25T11:48:34.786Z,24.82
2023-03-25T11:50:39.815Z,24.87
2023-03-25T11:52:44.809Z,24.87
2023-03-25T11:54:49.857Z,24.87
2023-03-25T11:56:54.973Z,24.88
2023-03-25T11:59:00.229Z,24.88
2023-03-25T12:01:05.420Z,24.86
2023-03-25T12:03:10.635Z,24.83
2023-03-25T12:05:16.027Z,24.79
2023-03-25T12:07:21.094Z,24.82
2023-03-25T12:09:27.389Z,24.8
2023-03-25T12:11:34.689Z,24.8
2023-03-25T12:13:39.740Z,24.78
2023-03-25T12:15:44.827Z,24.75
2023-03-25T12:17:49.889Z,24.72
2023-03-25T12:19:55.026Z,24.71
2023-03-25T12:22:00.103Z,24.71
2023-03-25T12:24:05.097Z,24.71
2023-03-25T12:26:10.148Z,24.74
2023-03-25T12:28:15.128Z,24.74
2023-03-25T12:30:20.145Z,24.76
2023-03-25T12:32:25.187Z,24.76
2023-03-25T12:34:30.249Z,24.76
2023-03-25T12:36:35.352Z,24.73
2023-03-25T12:38:40.388Z,24.74
2023-03-25T12:40:45.545Z,24.76
2023-03-25T12:42:50.618Z,24.74
2023-03-25T12:44:55.603Z,24.75
2023-03-25T12:47:00.630Z,24.73
2023-03-25T12:49:05.698Z,24.73
2023-03-25T12:51:10.704Z,24.73
2023-03-25T12:53:15.688Z,24.73
2023-03-25T12:55:20.777Z,24.75
2023-03-25T12:57:25.914Z,24.76
2023-03-25T12:59:30.941Z,24.76
2023-03-25T13:01:35.993Z,24.76
2023-03-25T13:03:41.221Z,24.77
2023-03-25T13:05:46.270Z,24.79
2023-03-25T13:07:51.338Z,24.78
2023-03-25T13:09:56.583Z,24.77
2023-03-25T13:12:01.726Z,24.75
2023-03-25T13:14:06.809Z,24.77
2023-03-25T13:16:11.893Z,24.77
2023-03-25T13:18:17.107Z,24.77
2023-03-25T13:20:22.170Z,24.76
2023-03-25T13:22:27.230Z,24.77
2023-03-25T13:24:32.297Z,24.78
2023-03-25T13:26:37.242Z,24.77
2023-03-25T13:28:45.920Z,24.81
2023-03-25T13:30:51.059Z,24.85
2023-03-25T13:32:56.543Z,24.87
2023-03-25T13:35:01.837Z,24.87
2023-03-25T13:37:06.984Z,24.85
2023-03-25T13:39:12.059Z,24.79
2023-03-25T13:41:19.706Z,24.74
2023-03-25T13:43:24.792Z,24.67
2023-03-25T13:45:29.848Z,24.63
2023-03-25T13:47:34.896Z,24.58
2023-03-25T13:49:40.059Z,24.54
2023-03-25T13:51:45.520Z,24.52
2023-03-25T13:53:50.760Z,24.44
2023-03-25T13:55:55.777Z,24.37
2023-03-25T13:58:00.821Z,24.31
2023-03-25T14:00:05.847Z,24.22
2023-03-25T14:02:10.919Z,24.16
2023-03-25T14:04:15.987Z,24.14
2023-03-25T14:06:20.987Z,24.11
2023-03-25T14:08:26.099Z,24.1
2023-03-25T14:10:31.203Z,24.12
2023-03-25T14:12:36.302Z,24.14
2023-03-25T14:14:41.398Z,24.17
2023-03-25T14:16:46.422Z,24.18
2023-03-25T14:18:51.396Z,24.15
2023-03-25T14:20:58.081Z,24.17
2023-03-25T14:23:04.089Z,24.2
2023-03-25T14:25:09.079Z,24.22
2023-03-25T14:27:14.028Z,24.24
2023-03-25T14:29:19.019Z,24.23
2023-03-25T14:31:24.018Z,24.24
2023-03-25T14:33:29.202Z,24.26
2023-03-25T14:35:34.477Z,24.26
2023-03-25T14:37:39.825Z,24.22
2023-03-25T14:39:44.839Z,24.19
2023-03-25T14:41:49.897Z,24.15
2023-03-25T14:43:54.976Z,24.14
2023-03-25T14:46:00.092Z,24.14
2023-03-25T14:48:10.292Z,24.15
2023-03-25T14:50:29.514Z,24.13
2023-03-25T14:52:34.615Z,24.13
2023-03-25T14:54:39.723Z,24.13
2023-03-25T14:56:44.824Z,24.12
2023-03-25T14:58:50.074Z,24.1
2023-03-25T15:00:55.090Z,24.09
2023-03-25T15:03:00.144Z,24.09
2023-03-25T15:05:06.100Z,24.09
2023-03-25T15:07:11.294Z,24.11
2023-03-25T15:09:16.315Z,24.09
2023-03-25T15:11:21.313Z,24.08
2023-03-25T15:13:26.348Z,24.03
2023-03-25T15:15:31.351Z,23.99
2023-03-25T15:17:36.402Z,23.96
2023-03-25T15:19:41.570Z,23.95
2023-03-25T15:21:46.545Z,23.91
2023-03-25T15:23:51.624Z,23.77
2023-03-25T15:25:56.608Z,23.74
2023-03-25T15:28:01.643Z,23.64
2023-03-25T15:30:06.877Z,23.59
2023-03-25T15:32:12.149Z,23.52
2023-03-25T15:34:17.194Z,23.52
2023-03-25T15:36:22.227Z,23.53
2023-03-25T15:38:27.204Z,23.53
2023-03-25T15:40:32.403Z,23.53
2023-03-25T15:42:37.430Z,23.53
2023-03-25T15:44:42.377Z,23.51
2023-03-25T15:46:47.355Z,23.55
2023-03-25T15:48:52.301Z,23.58
2023-03-25T15:50:57.306Z,23.6
2023-03-25T15:53:02.380Z,23.64
2023-03-25T15:55:07.360Z,23.63
2023-03-25T15:57:12.480Z,23.63
2023-03-25T15:59:17.678Z,23.59
2023-03-25T16:01:22.707Z,23.57
2023-03-25T16:03:27.901Z,23.55
2023-03-25T16:05:33.609Z,23.53
2023-03-25T16:07:38.574Z,23.5
2023-03-25T16:09:43.535Z,23.49
2023-03-25T16:11:48.575Z,23.46
2023-03-25T16:13:53.556Z,23.49
2023-03-25T16:15:58.560Z,23.54
2023-03-25T16:18:03.669Z,23.62
2023-03-25T16:20:08.877Z,23.67
2023-03-25T16:22:13.878Z,23.76
2023-03-25T16:24:18.844Z,23.83
2023-03-25T16:26:23.877Z,23.89
2023-03-25T16:28:28.873Z,23.93
2023-03-25T16:30:33.872Z,23.98
2023-03-25T16:32:39.028Z,24
2023-03-25T16:34:44.190Z,24.01
2023-03-25T16:36:49.177Z,24.05
2023-03-25T16:38:54.271Z,24.07
2023-03-25T16:40:59.464Z,23.95
2023-03-25T16:43:04.683Z,23.76
2023-03-25T16:45:09.771Z,23.65
2023-03-25T16:47:14.742Z,23.6
2023-03-25T16:49:19.890Z,23.54
2023-03-25T16:51:24.888Z,23.52
2023-03-25T16:53:29.924Z,23.46
2023-03-25T16:55:34.961Z,23.51
2023-03-25T16:57:40.052Z,23.48
2023-03-25T16:59:45.030Z,23.49
2023-03-25T17:01:50.100Z,23.47
2023-03-25T17:03:55.256Z,23.52
2023-03-25T17:06:00.289Z,23.58
2023-03-25T17:08:05.325Z,23.66
2023-03-25T17:10:10.352Z,23.74
2023-03-25T17:12:15.372Z,23.81
2023-03-25T17:14:20.372Z,23.86
2023-03-25T17:16:26.160Z,23.9
2023-03-25T17:18:31.345Z,23.93
2023-03-25T17:20:36.433Z,23.92
2023-03-25T17:22:41.542Z,23.96
2023-03-25T17:24:46.615Z,24
2023-03-25T17:26:51.667Z,24.06
2023-03-25T17:28:56.636Z,24.12
2023-03-25T17:31:01.855Z,24.16
2023-03-25T17:33:07.090Z,24.19
2023-03-25T17:35:12.101Z,24.22
2023-03-25T17:37:17.585Z,24.25
2023-03-25T17:39:22.604Z,24.26
2023-03-25T17:41:27.685Z,24.26
2023-03-25T17:43:32.940Z,24.25
2023-03-25T17:45:37.982Z,24.28
2023-03-25T17:47:43.022Z,24.27
2023-03-25T17:49:48.204Z,24.24
2023-03-25T17:51:53.213Z,24.23
2023-03-25T17:53:58.281Z,24.22
2023-03-25T17:56:03.282Z,24.25
2023-03-25T17:58:08.400Z,24.27
2023-03-25T18:00:13.391Z,24.3
2023-03-25T18:02:18.659Z,24.36
2023-03-25T18:04:23.654Z,24.39
2023-03-25T18:06:28.685Z,24.4
2023-03-25T18:08:33.685Z,24.42
2023-03-25T18:10:38.762Z,24.42
2023-03-25T18:12:43.804Z,24.44
2023-03-25T18:14:48.904Z,24.46
2023-03-25T18:16:53.898Z,24.51
2023-03-25T18:18:58.993Z,24.56
2023-03-25T18:21:04.121Z,24.61
2023-03-25T18:23:09.265Z,24.64
2023-03-25T18:25:14.259Z,24.66
2023-03-25T18:27:21.030Z,24.7
2023-03-25T18:29:46.788Z,24.71
2023-03-25T18:31:51.965Z,24.75
2023-03-25T18:33:57.246Z,24.73
2023-03-25T18:36:02.309Z,24.62
2023-03-25T18:38:07.491Z,24.5
2023-03-25T18:40:12.484Z,24.43
2023-03-25T18:42:17.499Z,24.44
2023-03-25T18:44:22.523Z,24.52
2023-03-25T18:46:27.588Z,24.56
2023-03-25T18:48:32.548Z,24.58
2023-03-25T18:50:37.579Z,24.53
2023-03-25T18:52:42.665Z,24.48
2023-03-25T18:54:47.699Z,24.44
2023-03-25T18:56:52.728Z,24.39
2023-03-25T18:58:57.928Z,24.38
2023-03-25T19:01:03.163Z,24.36
2023-03-25T19:03:08.430Z,24.36
2023-03-25T19:05:13.787Z,24.35
2023-03-25T19:07:19.087Z,24.32
2023-03-25T19:09:24.218Z,24.28
2023-03-25T19:11:29.276Z,24.26
2023-03-25T19:13:34.354Z,24.22
2023-03-25T19:15:39.477Z,24.18
2023-03-25T19:17:44.578Z,24.14
2023-03-25T19:19:49.764Z,24.11
2023-03-25T19:21:54.775Z,24.1
2023-03-25T19:23:59.849Z,24.1
2023-03-25T19:26:04.853Z,24.07
2023-03-25T19:28:09.856Z,24.07
2023-03-25T19:30:14.904Z,24.06
2023-03-25T19:32:20.082Z,24.05
2023-03-25T19:34:25.082Z,24.04
2023-03-25T19:36:30.351Z,24.03
2023-03-25T19:38:35.339Z,24.04
2023-03-25T19:40:40.381Z,24.02
2023-03-25T19:42:45.384Z,24.01
2023-03-25T19:44:50.521Z,24
2023-03-25T19:46:55.497Z,23.98
2023-03-25T19:49:00.495Z,24.01
2023-03-25T19:51:05.556Z,24.01
2023-03-25T19:53:10.637Z,24.02
2023-03-25T19:55:15.698Z,24
2023-03-25T19:57:20.722Z,23.98
2023-03-25T19:59:25.752Z,23.94
2023-03-25T20:01:30.782Z,23.9
2023-03-25T20:03:36.021Z,23.84
2023-03-25T20:05:41.655Z,23.83
2023-03-25T20:07:46.708Z,23.79
2023-03-25T20:09:51.718Z,23.75
2023-03-25T20:11:56.771Z,23.74
2023-03-25T20:14:01.759Z,23.71
2023-03-25T20:16:06.978Z,23.7
2023-03-25T20:18:12.122Z,23.67
2023-03-25T20:20:17.388Z,23.64
2023-03-25T20:22:24.741Z,23.66
2023-03-25T20:24:30.063Z,23.69
2023-03-25T20:26:35.082Z,23.71
2023-03-25T20:28:40.147Z,23.71
2023-03-25T20:30:45.237Z,23.71
2023-03-25T20:32:50.383Z,23.66
2023-03-25T20:34:55.602Z,23.65
2023-03-25T20:37:00.637Z,23.62
2023-03-25T20:39:05.899Z,23.6
2023-03-25T20:41:11.104Z,23.59
2023-03-25T20:43:16.162Z,23.52
2023-03-25T20:45:21.266Z,23.48
2023-03-25T20:47:26.325Z,23.46
2023-03-25T20:49:31.509Z,23.46
2023-03-25T20:51:36.529Z,23.52
2023-03-25T20:53:41.513Z,23.57
2023-03-25T20:55:46.523Z,23.59
2023-03-25T20:57:51.618Z,23.61
2023-03-25T20:59:56.623Z,23.6
2023-03-25T21:02:01.665Z,23.6
2023-03-25T21:04:06.888Z,23.59
2023-03-25T21:06:22.668Z,23.57
2023-03-25T21:08:32.496Z,23.56
2023-03-25T21:10:37.500Z,23.56
2023-03-25T21:12:44.177Z,23.61
2023-03-25T21:14:49.785Z,23.66
2023-03-25T21:16:54.895Z,23.69
2023-03-25T21:19:00.027Z,23.7
2023-03-25T21:21:05.107Z,23.71
2023-03-25T21:23:10.093Z,23.71
2023-03-25T21:25:15.267Z,23.71
2023-03-25T21:27:20.583Z,23.69
2023-03-25T21:29:42.845Z,23.69
2023-03-25T21:31:47.909Z,23.68
2023-03-25T21:33:53.164Z,23.67
2023-03-25T21:35:58.236Z,23.67
2023-03-25T21:38:03.416Z,23.66
2023-03-25T21:40:08.660Z,23.66
2023-03-25T21:42:14.238Z,23.65
2023-03-25T21:44:19.344Z,23.62
2023-03-25T21:46:24.549Z,23.59
2023-03-25T21:48:30.023Z,23.55
2023-03-25T21:50:35.127Z,23.53
2023-03-25T21:52:40.236Z,23.48
2023-03-25T21:54:45.319Z,23.47
2023-03-25T21:56:50.340Z,23.44
2023-03-25T21:58:55.516Z,23.47
2023-03-25T22:01:00.587Z,23.52
2023-03-25T22:03:05.860Z,23.54
2023-03-25T22:05:10.996Z,23.57
2023-03-25T22:07:16.045Z,23.57
2023-03-25T22:09:21.100Z,23.56
2023-03-25T22:11:26.109Z,23.54
2023-03-25T22:13:31.102Z,23.53
2023-03-25T22:15:36.198Z,23.51
2023-03-25T22:17:41.204Z,23.51
2023-03-25T22:19:46.436Z,23.51
2023-03-25T22:21:51.462Z,23.5
2023-03-25T22:23:56.606Z,23.49
2023-03-25T22:26:01.789Z,23.49
2023-03-25T22:28:06.817Z,23.46
2023-03-25T22:30:11.833Z,23.47
2023-03-25T22:32:16.865Z,23.46
2023-03-25T22:34:21.934Z,23.48
2023-03-25T22:36:26.956Z,23.48
2023-03-25T22:38:31.996Z,23.46
2023-03-25T22:40:36.994Z,23.5
2023-03-25T22:42:42.012Z,23.46
2023-03-25T22:44:47.042Z,23.47
2023-03-25T22:46:52.133Z,23.48
2023-03-25T22:48:57.425Z,23.49
2023-03-25T22:51:02.553Z,23.5
2023-03-25T22:53:07.622Z,23.49
2023-03-25T22:55:12.666Z,23.48
2023-03-25T22:57:17.652Z,23.49
2023-03-25T22:59:22.677Z,23.45
2023-03-25T23:01:27.743Z,23.47
2023-03-25T23:03:33.050Z,23.48
2023-03-25T23:05:38.370Z,23.48
2023-03-25T23:07:43.353Z,23.48
2023-03-25T23:09:48.352Z,23.49
2023-03-25T23:11:53.399Z,23.49
2023-03-25T23:13:58.489Z,23.47
2023-03-25T23:16:03.480Z,23.46
2023-03-25T23:18:08.747Z,23.45
2023-03-25T23:20:13.943Z,23.44
2023-03-25T23:22:18.993Z,23.45
2023-03-25T23:24:24.063Z,23.44
2023-03-25T23:26:29.115Z,23.44
2023-03-25T23:28:34.240Z,23.43
2023-03-25T23:30:39.436Z,23.43
2023-03-25T23:32:44.390Z,23.42
2023-03-25T23:34:49.629Z,23.39
2023-03-25T23:36:54.732Z,23.4
2023-03-25T23:38:59.794Z,23.4
2023-03-25T23:41:05.127Z,23.4
2023-03-25T23:43:10.109Z,23.41
2023-03-25T23:45:15.153Z,23.4
2023-03-25T23:47:20.216Z,23.42
2023-03-25T23:49:25.429Z,23.41
2023-03-25T23:51:30.430Z,23.42
2023-03-25T23:53:35.447Z,23.4
2023-03-25T23:55:40.461Z,23.41
2023-03-25T23:57:45.453Z,23.41
2023-03-25T23:59:50.514Z,23.39
